FAGM

Rand Airport

Johannesburg, South Africa
METAR FAGM 120800Z 36006KT CAVOK 24/07 Q1024
Observed Flight Rules
Dec-12 @ 08:00 UTC (2 hours ago) Visual Flight Rules
Wind Visibility Clouds
360° at 6 knots 10,000+ meters
  • Clear skies
Temperatures Readings
Current 24°C / 75°F
Dewpoint 7°C / 45°F
Humidity 34%
Altimeter 30.24" Hg
Pressure 1024 hPa
Elevation 1672
METAR FAGM 120800Z 36006KT CAVOK 24/07 Q1024
Observed Flight Rules
Dec-12 @ 08:00 UTC
(2 hours ago)
VFR
Wind Visibility
360° at 6 knots 10,000+ meters
Clouds
  • Clear skies
Temperature Dewpoint
24°C / 75°F 7°C / 45°F
Humidity Altimeter Pressure
34% 30.24" Hg 1024 hPa